sensor_id;sensor_type;location;lat;lon;timestamp;P1;durP1;ratioP1;P2;durP2;ratioP2
53271;SDS011;39160;48.580;7.756;2023-08-17T00:02:37;3.22;;;1.83;;
53271;SDS011;39160;48.580;7.756;2023-08-17T00:07:32;2.72;;;1.65;;
53271;SDS011;39160;48.580;7.756;2023-08-17T00:12:23;3.17;;;2.47;;
53271;SDS011;39160;48.580;7.756;2023-08-17T00:17:14;2.42;;;1.67;;
53271;SDS011;39160;48.580;7.756;2023-08-17T00:22:05;2.35;;;1.90;;
53271;SDS011;39160;48.580;7.756;2023-08-17T00:26:56;1.55;;;1.13;;
53271;SDS011;39160;48.580;7.756;2023-08-17T00:31:47;1.55;;;1.35;;
53271;SDS011;39160;48.580;7.756;2023-08-17T00:36:38;1.98;;;1.50;;
53271;SDS011;39160;48.580;7.756;2023-08-17T00:41:28;1.80;;;1.60;;
53271;SDS011;39160;48.580;7.756;2023-08-17T00:46:20;1.60;;;1.20;;
53271;SDS011;39160;48.580;7.756;2023-08-17T00:51:13;2.35;;;1.35;;
53271;SDS011;39160;48.580;7.756;2023-08-17T00:56:04;2.45;;;1.33;;
53271;SDS011;39160;48.580;7.756;2023-08-17T01:00:55;1.70;;;1.13;;
53271;SDS011;39160;48.580;7.756;2023-08-17T01:05:46;1.92;;;1.10;;
53271;SDS011;39160;48.580;7.756;2023-08-17T01:10:40;2.05;;;1.30;;
53271;SDS011;39160;48.580;7.756;2023-08-17T01:15:40;4.05;;;1.80;;
53271;SDS011;39160;48.580;7.756;2023-08-17T01:20:37;1.00;;;0.90;;
53271;SDS011;39160;48.580;7.756;2023-08-17T01:25:28;2.08;;;1.55;;
53271;SDS011;39160;48.580;7.756;2023-08-17T01:30:18;1.88;;;1.65;;
53271;SDS011;39160;48.580;7.756;2023-08-17T01:35:19;1.75;;;1.13;;
53271;SDS011;39160;48.580;7.756;2023-08-17T01:40:20;1.83;;;1.48;;
53271;SDS011;39160;48.580;7.756;2023-08-17T01:45:11;1.67;;;1.35;;
53271;SDS011;39160;48.580;7.756;2023-08-17T01:50:02;1.85;;;1.15;;
53271;SDS011;39160;48.580;7.756;2023-08-17T01:54:53;2.20;;;0.98;;
53271;SDS011;39160;48.580;7.756;2023-08-17T01:59:44;2.00;;;1.33;;
53271;SDS011;39160;48.580;7.756;2023-08-17T02:04:34;3.63;;;1.40;;
53271;SDS011;39160;48.580;7.756;2023-08-17T02:09:25;2.00;;;1.80;;
53271;SDS011;39160;48.580;7.756;2023-08-17T02:14:15;4.30;;;1.48;;
53271;SDS011;39160;48.580;7.756;2023-08-17T02:19:06;2.08;;;1.42;;
53271;SDS011;39160;48.580;7.756;2023-08-17T02:23:57;2.22;;;1.33;;
53271;SDS011;39160;48.580;7.756;2023-08-17T02:28:48;3.45;;;1.50;;
53271;SDS011;39160;48.580;7.756;2023-08-17T02:33:38;2.83;;;1.92;;
53271;SDS011;39160;48.580;7.756;2023-08-17T02:38:29;2.75;;;1.50;;
53271;SDS011;39160;48.580;7.756;2023-08-17T02:43:23;2.55;;;1.70;;
53271;SDS011;39160;48.580;7.756;2023-08-17T02:48:13;2.55;;;1.35;;
53271;SDS011;39160;48.580;7.756;2023-08-17T02:53:04;1.88;;;1.30;;
53271;SDS011;39160;48.580;7.756;2023-08-17T02:57:55;3.10;;;1.58;;
53271;SDS011;39160;48.580;7.756;2023-08-17T03:02:46;1.92;;;1.30;;
53271;SDS011;39160;48.580;7.756;2023-08-17T03:07:37;4.30;;;2.05;;
53271;SDS011;39160;48.580;7.756;2023-08-17T03:12:28;2.80;;;1.70;;
53271;SDS011;39160;48.580;7.756;2023-08-17T03:17:18;2.47;;;1.50;;
53271;SDS011;39160;48.580;7.756;2023-08-17T03:22:09;2.55;;;1.67;;
53271;SDS011;39160;48.580;7.756;2023-08-17T03:27:00;3.42;;;1.65;;
53271;SDS011;39160;48.580;7.756;2023-08-17T03:31:50;4.20;;;1.80;;
53271;SDS011;39160;48.580;7.756;2023-08-17T03:36:41;1.90;;;1.40;;
53271;SDS011;39160;48.580;7.756;2023-08-17T03:41:32;2.90;;;1.70;;
53271;SDS011;39160;48.580;7.756;2023-08-17T03:46:22;2.53;;;1.85;;
53271;SDS011;39160;48.580;7.756;2023-08-17T03:51:13;4.38;;;1.83;;
53271;SDS011;39160;48.580;7.756;2023-08-17T03:56:04;3.38;;;1.80;;
53271;SDS011;39160;48.580;7.756;2023-08-17T04:00:58;2.55;;;2.03;;
53271;SDS011;39160;48.580;7.756;2023-08-17T04:05:48;3.13;;;2.10;;
53271;SDS011;39160;48.580;7.756;2023-08-17T04:10:39;4.60;;;2.65;;
53271;SDS011;39160;48.580;7.756;2023-08-17T04:15:30;2.83;;;1.80;;
53271;SDS011;39160;48.580;7.756;2023-08-17T04:20:20;2.20;;;1.60;;
53271;SDS011;39160;48.580;7.756;2023-08-17T04:25:13;1.95;;;1.65;;
53271;SDS011;39160;48.580;7.756;2023-08-17T04:30:04;2.90;;;1.65;;
53271;SDS011;39160;48.580;7.756;2023-08-17T04:34:55;3.33;;;2.00;;
53271;SDS011;39160;48.580;7.756;2023-08-17T04:39:46;2.35;;;1.95;;
53271;SDS011;39160;48.580;7.756;2023-08-17T04:44:41;3.50;;;2.08;;
53271;SDS011;39160;48.580;7.756;2023-08-17T04:49:31;3.55;;;2.17;;
53271;SDS011;39160;48.580;7.756;2023-08-17T04:54:22;3.97;;;2.17;;
53271;SDS011;39160;48.580;7.756;2023-08-17T04:59:13;2.92;;;1.60;;
53271;SDS011;39160;48.580;7.756;2023-08-17T05:04:04;3.17;;;1.98;;
53271;SDS011;39160;48.580;7.756;2023-08-17T05:08:55;4.80;;;1.88;;
53271;SDS011;39160;48.580;7.756;2023-08-17T05:13:48;3.50;;;1.98;;
53271;SDS011;39160;48.580;7.756;2023-08-17T05:18:39;5.65;;;1.85;;
53271;SDS011;39160;48.580;7.756;2023-08-17T05:23:29;5.95;;;1.98;;
53271;SDS011;39160;48.580;7.756;2023-08-17T05:28:20;3.03;;;1.60;;
53271;SDS011;39160;48.580;7.756;2023-08-17T05:33:11;3.70;;;1.80;;
53271;SDS011;39160;48.580;7.756;2023-08-17T05:38:02;3.05;;;1.88;;
53271;SDS011;39160;48.580;7.756;2023-08-17T05:42:53;3.50;;;2.13;;
53271;SDS011;39160;48.580;7.756;2023-08-17T05:47:44;2.58;;;2.05;;
53271;SDS011;39160;48.580;7.756;2023-08-17T05:52:35;3.50;;;2.42;;
53271;SDS011;39160;48.580;7.756;2023-08-17T05:57:26;3.42;;;2.65;;
53271;SDS011;39160;48.580;7.756;2023-08-17T06:02:17;6.78;;;2.95;;
53271;SDS011;39160;48.580;7.756;2023-08-17T06:07:08;5.55;;;2.88;;
53271;SDS011;39160;48.580;7.756;2023-08-17T06:11:58;5.03;;;2.80;;
53271;SDS011;39160;48.580;7.756;2023-08-17T06:16:49;5.93;;;2.97;;
53271;SDS011;39160;48.580;7.756;2023-08-17T06:21:39;4.93;;;2.15;;
53271;SDS011;39160;48.580;7.756;2023-08-17T06:26:30;4.32;;;2.67;;
53271;SDS011;39160;48.580;7.756;2023-08-17T06:31:22;6.88;;;4.43;;
53271;SDS011;39160;48.580;7.756;2023-08-17T06:36:17;9.82;;;3.85;;
53271;SDS011;39160;48.580;7.756;2023-08-17T06:41:08;5.70;;;3.10;;
53271;SDS011;39160;48.580;7.756;2023-08-17T06:45:59;5.68;;;3.50;;
53271;SDS011;39160;48.580;7.756;2023-08-17T06:50:50;8.13;;;3.92;;
53271;SDS011;39160;48.580;7.756;2023-08-17T06:55:41;7.25;;;4.55;;
53271;SDS011;39160;48.580;7.756;2023-08-17T07:00:31;8.73;;;3.70;;
53271;SDS011;39160;48.580;7.756;2023-08-17T07:05:22;8.98;;;4.03;;
53271;SDS011;39160;48.580;7.756;2023-08-17T07:10:13;8.45;;;5.18;;
53271;SDS011;39160;48.580;7.756;2023-08-17T07:15:05;6.05;;;3.17;;
53271;SDS011;39160;48.580;7.756;2023-08-17T07:19:57;4.50;;;3.22;;
53271;SDS011;39160;48.580;7.756;2023-08-17T07:24:47;5.75;;;3.72;;
53271;SDS011;39160;48.580;7.756;2023-08-17T07:29:38;5.40;;;3.38;;
53271;SDS011;39160;48.580;7.756;2023-08-17T07:34:29;5.80;;;3.45;;
53271;SDS011;39160;48.580;7.756;2023-08-17T07:39:21;7.13;;;3.40;;
53271;SDS011;39160;48.580;7.756;2023-08-17T07:44:12;6.70;;;4.28;;
53271;SDS011;39160;48.580;7.756;2023-08-17T07:49:03;7.07;;;4.10;;
53271;SDS011;39160;48.580;7.756;2023-08-17T07:53:53;9.82;;;5.90;;
53271;SDS011;39160;48.580;7.756;2023-08-17T07:58:44;7.35;;;3.58;;
53271;SDS011;39160;48.580;7.756;2023-08-17T08:03:35;6.50;;;3.53;;
53271;SDS011;39160;48.580;7.756;2023-08-17T08:08:26;7.05;;;3.67;;
53271;SDS011;39160;48.580;7.756;2023-08-17T08:13:16;6.55;;;3.75;;
53271;SDS011;39160;48.580;7.756;2023-08-17T08:18:07;7.05;;;3.42;;
53271;SDS011;39160;48.580;7.756;2023-08-17T08:22:58;7.10;;;4.30;;
53271;SDS011;39160;48.580;7.756;2023-08-17T08:27:49;8.15;;;4.60;;
53271;SDS011;39160;48.580;7.756;2023-08-17T08:32:40;7.40;;;4.45;;
53271;SDS011;39160;48.580;7.756;2023-08-17T08:37:30;5.15;;;3.55;;
53271;SDS011;39160;48.580;7.756;2023-08-17T08:42:22;6.68;;;3.95;;
53271;SDS011;39160;48.580;7.756;2023-08-17T08:47:13;5.03;;;3.60;;
53271;SDS011;39160;48.580;7.756;2023-08-17T08:52:10;4.78;;;3.88;;
53271;SDS011;39160;48.580;7.756;2023-08-17T08:57:04;6.93;;;3.40;;
53271;SDS011;39160;48.580;7.756;2023-08-17T09:01:58;5.07;;;3.63;;
53271;SDS011;39160;48.580;7.756;2023-08-17T09:06:50;6.43;;;5.05;;
53271;SDS011;39160;48.580;7.756;2023-08-17T09:11:41;6.65;;;3.67;;
53271;SDS011;39160;48.580;7.756;2023-08-17T09:16:32;4.75;;;4.03;;
53271;SDS011;39160;48.580;7.756;2023-08-17T09:21:23;4.10;;;3.05;;
53271;SDS011;39160;48.580;7.756;2023-08-17T09:26:14;6.22;;;3.55;;
53271;SDS011;39160;48.580;7.756;2023-08-17T09:31:07;4.75;;;3.47;;
53271;SDS011;39160;48.580;7.756;2023-08-17T09:35:58;7.03;;;3.72;;
53271;SDS011;39160;48.580;7.756;2023-08-17T09:40:50;5.63;;;3.65;;
53271;SDS011;39160;48.580;7.756;2023-08-17T09:45:45;8.63;;;4.47;;
53271;SDS011;39160;48.580;7.756;2023-08-17T09:50:37;6.57;;;3.40;;
53271;SDS011;39160;48.580;7.756;2023-08-17T09:55:31;7.72;;;4.82;;
53271;SDS011;39160;48.580;7.756;2023-08-17T10:00:23;7.38;;;4.20;;
53271;SDS011;39160;48.580;7.756;2023-08-17T10:05:18;7.20;;;4.25;;
53271;SDS011;39160;48.580;7.756;2023-08-17T10:10:11;9.45;;;5.07;;
53271;SDS011;39160;48.580;7.756;2023-08-17T10:15:10;7.28;;;4.80;;
53271;SDS011;39160;48.580;7.756;2023-08-17T10:20:03;6.93;;;4.85;;
53271;SDS011;39160;48.580;7.756;2023-08-17T10:24:55;8.88;;;4.82;;
53271;SDS011;39160;48.580;7.756;2023-08-17T10:29:50;7.07;;;4.25;;
53271;SDS011;39160;48.580;7.756;2023-08-17T10:34:42;7.07;;;4.65;;
53271;SDS011;39160;48.580;7.756;2023-08-17T10:39:34;10.45;;;5.90;;
53271;SDS011;39160;48.580;7.756;2023-08-17T10:44:45;9.63;;;6.13;;
53271;SDS011;39160;48.580;7.756;2023-08-17T10:49:37;6.80;;;4.95;;
53271;SDS011;39160;48.580;7.756;2023-08-17T10:54:35;12.75;;;5.30;;
53271;SDS011;39160;48.580;7.756;2023-08-17T10:59:27;6.07;;;4.22;;
53271;SDS011;39160;48.580;7.756;2023-08-17T11:04:21;8.57;;;5.23;;
53271;SDS011;39160;48.580;7.756;2023-08-17T11:09:11;7.78;;;5.22;;
53271;SDS011;39160;48.580;7.756;2023-08-17T11:14:06;7.72;;;4.82;;
53271;SDS011;39160;48.580;7.756;2023-08-17T11:18:59;6.85;;;4.82;;
53271;SDS011;39160;48.580;7.756;2023-08-17T11:23:50;6.60;;;4.57;;
53271;SDS011;39160;48.580;7.756;2023-08-17T11:28:41;6.72;;;4.53;;
53271;SDS011;39160;48.580;7.756;2023-08-17T11:33:34;5.47;;;4.53;;
53271;SDS011;39160;48.580;7.756;2023-08-17T11:38:26;8.23;;;4.60;;
53271;SDS011;39160;48.580;7.756;2023-08-17T11:43:21;7.30;;;4.70;;
53271;SDS011;39160;48.580;7.756;2023-08-17T11:48:16;6.88;;;4.88;;
53271;SDS011;39160;48.580;7.756;2023-08-17T11:53:09;6.53;;;4.63;;
53271;SDS011;39160;48.580;7.756;2023-08-17T11:58:01;8.10;;;4.90;;
53271;SDS011;39160;48.580;7.756;2023-08-17T12:02:52;7.63;;;4.63;;
53271;SDS011;39160;48.580;7.756;2023-08-17T12:07:44;8.38;;;5.00;;
53271;SDS011;39160;48.580;7.756;2023-08-17T12:12:36;8.88;;;5.20;;
53271;SDS011;39160;48.580;7.756;2023-08-17T12:17:28;9.30;;;4.95;;
53271;SDS011;39160;48.580;7.756;2023-08-17T12:22:19;9.43;;;5.45;;
53271;SDS011;39160;48.580;7.756;2023-08-17T12:27:13;7.70;;;4.95;;
53271;SDS011;39160;48.580;7.756;2023-08-17T12:32:04;6.20;;;4.70;;
53271;SDS011;39160;48.580;7.756;2023-08-17T12:36:54;6.38;;;4.97;;
53271;SDS011;39160;48.580;7.756;2023-08-17T12:41:45;6.80;;;4.85;;
53271;SDS011;39160;48.580;7.756;2023-08-17T12:46:36;6.93;;;4.88;;
53271;SDS011;39160;48.580;7.756;2023-08-17T12:51:27;8.93;;;5.03;;
53271;SDS011;39160;48.580;7.756;2023-08-17T12:56:18;5.68;;;4.70;;
53271;SDS011;39160;48.580;7.756;2023-08-17T13:01:09;4.88;;;4.30;;
53271;SDS011;39160;48.580;7.756;2023-08-17T13:06:04;5.75;;;4.38;;
53271;SDS011;39160;48.580;7.756;2023-08-17T13:10:54;5.82;;;4.30;;
53271;SDS011;39160;48.580;7.756;2023-08-17T13:15:45;6.28;;;3.92;;
53271;SDS011;39160;48.580;7.756;2023-08-17T13:20:36;4.60;;;4.07;;
53271;SDS011;39160;48.580;7.756;2023-08-17T13:25:28;4.93;;;3.97;;
53271;SDS011;39160;48.580;7.756;2023-08-17T13:30:19;6.22;;;3.70;;
53271;SDS011;39160;48.580;7.756;2023-08-17T13:35:10;6.30;;;4.35;;
53271;SDS011;39160;48.580;7.756;2023-08-17T13:40:01;5.75;;;4.20;;
53271;SDS011;39160;48.580;7.756;2023-08-17T13:44:51;6.15;;;4.40;;
53271;SDS011;39160;48.580;7.756;2023-08-17T13:49:42;4.53;;;4.03;;
53271;SDS011;39160;48.580;7.756;2023-08-17T13:54:36;5.57;;;5.05;;
53271;SDS011;39160;48.580;7.756;2023-08-17T13:59:27;6.40;;;4.90;;
53271;SDS011;39160;48.580;7.756;2023-08-17T14:04:19;5.72;;;4.95;;
53271;SDS011;39160;48.580;7.756;2023-08-17T14:09:13;5.82;;;4.22;;
53271;SDS011;39160;48.580;7.756;2023-08-17T14:14:04;5.35;;;4.18;;
53271;SDS011;39160;48.580;7.756;2023-08-17T14:18:55;7.50;;;4.65;;
53271;SDS011;39160;48.580;7.756;2023-08-17T14:23:45;8.63;;;5.50;;
53271;SDS011;39160;48.580;7.756;2023-08-17T14:28:36;5.80;;;4.32;;
53271;SDS011;39160;48.580;7.756;2023-08-17T14:33:27;7.60;;;5.20;;
53271;SDS011;39160;48.580;7.756;2023-08-17T14:38:18;7.15;;;5.07;;
53271;SDS011;39160;48.580;7.756;2023-08-17T14:43:09;4.60;;;3.80;;
53271;SDS011;39160;48.580;7.756;2023-08-17T14:48:01;6.97;;;4.22;;
53271;SDS011;39160;48.580;7.756;2023-08-17T14:52:53;5.55;;;4.13;;
53271;SDS011;39160;48.580;7.756;2023-08-17T14:57:44;4.72;;;3.90;;
53271;SDS011;39160;48.580;7.756;2023-08-17T15:02:34;7.13;;;4.20;;
53271;SDS011;39160;48.580;7.756;2023-08-17T15:07:25;7.13;;;4.53;;
53271;SDS011;39160;48.580;7.756;2023-08-17T15:12:16;6.57;;;4.32;;
53271;SDS011;39160;48.580;7.756;2023-08-17T15:17:06;6.65;;;4.60;;
53271;SDS011;39160;48.580;7.756;2023-08-17T15:22:03;7.85;;;4.60;;
53271;SDS011;39160;48.580;7.756;2023-08-17T15:26:54;5.22;;;4.43;;
53271;SDS011;39160;48.580;7.756;2023-08-17T15:31:44;5.80;;;3.53;;
53271;SDS011;39160;48.580;7.756;2023-08-17T15:36:35;8.23;;;4.63;;
53271;SDS011;39160;48.580;7.756;2023-08-17T15:41:26;4.03;;;3.47;;
53271;SDS011;39160;48.580;7.756;2023-08-17T15:46:16;5.85;;;4.03;;
53271;SDS011;39160;48.580;7.756;2023-08-17T15:51:07;4.70;;;3.70;;
53271;SDS011;39160;48.580;7.756;2023-08-17T15:55:58;7.57;;;3.65;;
53271;SDS011;39160;48.580;7.756;2023-08-17T16:00:49;7.07;;;3.70;;
53271;SDS011;39160;48.580;7.756;2023-08-17T16:05:42;4.68;;;3.72;;
53271;SDS011;39160;48.580;7.756;2023-08-17T16:10:33;5.60;;;3.83;;
53271;SDS011;39160;48.580;7.756;2023-08-17T16:15:24;3.78;;;3.42;;
53271;SDS011;39160;48.580;7.756;2023-08-17T16:20:15;6.30;;;4.20;;
53271;SDS011;39160;48.580;7.756;2023-08-17T16:25:06;5.28;;;3.63;;
53271;SDS011;39160;48.580;7.756;2023-08-17T16:30:01;5.60;;;4.10;;
53271;SDS011;39160;48.580;7.756;2023-08-17T16:34:52;7.07;;;4.68;;
53271;SDS011;39160;48.580;7.756;2023-08-17T16:39:43;7.38;;;4.20;;
53271;SDS011;39160;48.580;7.756;2023-08-17T16:44:34;8.57;;;4.10;;
53271;SDS011;39160;48.580;7.756;2023-08-17T16:49:24;4.50;;;3.70;;
53271;SDS011;39160;48.580;7.756;2023-08-17T16:54:16;4.47;;;3.75;;
53271;SDS011;39160;48.580;7.756;2023-08-17T16:59:06;4.15;;;3.30;;
53271;SDS011;39160;48.580;7.756;2023-08-17T17:03:57;8.05;;;3.67;;
53271;SDS011;39160;48.580;7.756;2023-08-17T17:08:48;6.50;;;4.03;;
53271;SDS011;39160;48.580;7.756;2023-08-17T17:13:39;7.85;;;4.57;;
53271;SDS011;39160;48.580;7.756;2023-08-17T17:18:29;6.45;;;4.07;;
53271;SDS011;39160;48.580;7.756;2023-08-17T17:23:20;6.43;;;4.38;;
53271;SDS011;39160;48.580;7.756;2023-08-17T17:28:11;4.93;;;3.50;;
53271;SDS011;39160;48.580;7.756;2023-08-17T17:33:01;6.75;;;4.18;;
53271;SDS011;39160;48.580;7.756;2023-08-17T17:37:52;5.53;;;4.28;;
53271;SDS011;39160;48.580;7.756;2023-08-17T17:42:43;6.50;;;3.92;;
53271;SDS011;39160;48.580;7.756;2023-08-17T17:47:33;5.05;;;4.15;;
53271;SDS011;39160;48.580;7.756;2023-08-17T17:52:27;5.85;;;4.10;;
53271;SDS011;39160;48.580;7.756;2023-08-17T17:57:18;4.85;;;3.83;;
53271;SDS011;39160;48.580;7.756;2023-08-17T18:02:09;5.20;;;3.97;;
53271;SDS011;39160;48.580;7.756;2023-08-17T18:06:59;6.35;;;4.50;;
53271;SDS011;39160;48.580;7.756;2023-08-17T18:11:50;6.38;;;4.97;;
53271;SDS011;39160;48.580;7.756;2023-08-17T18:16:41;6.82;;;4.45;;
53271;SDS011;39160;48.580;7.756;2023-08-17T18:21:31;9.82;;;5.10;;
53271;SDS011;39160;48.580;7.756;2023-08-17T18:26:22;8.70;;;6.15;;
53271;SDS011;39160;48.580;7.756;2023-08-17T18:31:12;8.38;;;5.78;;
53271;SDS011;39160;48.580;7.756;2023-08-17T18:36:03;10.07;;;5.63;;
53271;SDS011;39160;48.580;7.756;2023-08-17T18:40:56;6.68;;;4.88;;
53271;SDS011;39160;48.580;7.756;2023-08-17T18:45:56;8.70;;;4.28;;
53271;SDS011;39160;48.580;7.756;2023-08-17T18:50:47;6.82;;;5.15;;
53271;SDS011;39160;48.580;7.756;2023-08-17T18:55:38;8.05;;;5.45;;
53271;SDS011;39160;48.580;7.756;2023-08-17T19:00:29;5.85;;;5.25;;
53271;SDS011;39160;48.580;7.756;2023-08-17T19:05:20;5.57;;;4.43;;
53271;SDS011;39160;48.580;7.756;2023-08-17T19:10:11;9.93;;;5.43;;
53271;SDS011;39160;48.580;7.756;2023-08-17T19:15:01;10.10;;;5.13;;
53271;SDS011;39160;48.580;7.756;2023-08-17T19:19:53;8.50;;;5.50;;
53271;SDS011;39160;48.580;7.756;2023-08-17T19:24:44;7.28;;;4.60;;
53271;SDS011;39160;48.580;7.756;2023-08-17T19:29:35;7.95;;;4.35;;
53271;SDS011;39160;48.580;7.756;2023-08-17T19:34:26;7.75;;;4.78;;
53271;SDS011;39160;48.580;7.756;2023-08-17T19:39:17;8.23;;;5.28;;
53271;SDS011;39160;48.580;7.756;2023-08-17T19:44:08;9.50;;;5.32;;
53271;SDS011;39160;48.580;7.756;2023-08-17T19:48:59;5.80;;;4.95;;
53271;SDS011;39160;48.580;7.756;2023-08-17T19:53:52;7.20;;;5.00;;
53271;SDS011;39160;48.580;7.756;2023-08-17T19:58:44;7.35;;;5.43;;
53271;SDS011;39160;48.580;7.756;2023-08-17T20:03:35;6.22;;;4.75;;
53271;SDS011;39160;48.580;7.756;2023-08-17T20:08:26;6.93;;;4.95;;
53271;SDS011;39160;48.580;7.756;2023-08-17T20:13:17;7.10;;;5.10;;
53271;SDS011;39160;48.580;7.756;2023-08-17T20:18:08;6.28;;;4.70;;
53271;SDS011;39160;48.580;7.756;2023-08-17T20:22:59;8.15;;;5.85;;
53271;SDS011;39160;48.580;7.756;2023-08-17T20:27:50;8.45;;;5.15;;
53271;SDS011;39160;48.580;7.756;2023-08-17T20:32:41;7.50;;;5.32;;
53271;SDS011;39160;48.580;7.756;2023-08-17T20:37:31;9.15;;;6.82;;
53271;SDS011;39160;48.580;7.756;2023-08-17T20:42:22;5.18;;;4.40;;
53271;SDS011;39160;48.580;7.756;2023-08-17T20:47:13;7.25;;;4.97;;
53271;SDS011;39160;48.580;7.756;2023-08-17T20:52:03;6.85;;;5.03;;
53271;SDS011;39160;48.580;7.756;2023-08-17T20:56:57;7.18;;;5.20;;
53271;SDS011;39160;48.580;7.756;2023-08-17T21:01:48;8.70;;;5.22;;
53271;SDS011;39160;48.580;7.756;2023-08-17T21:06:39;8.45;;;5.65;;
53271;SDS011;39160;48.580;7.756;2023-08-17T21:11:31;6.35;;;4.43;;
53271;SDS011;39160;48.580;7.756;2023-08-17T21:16:22;5.63;;;5.13;;
53271;SDS011;39160;48.580;7.756;2023-08-17T21:21:12;7.13;;;4.80;;
53271;SDS011;39160;48.580;7.756;2023-08-17T21:26:03;5.40;;;4.43;;
53271;SDS011;39160;48.580;7.756;2023-08-17T21:31:03;5.32;;;4.57;;
53271;SDS011;39160;48.580;7.756;2023-08-17T21:35:56;6.15;;;4.55;;
53271;SDS011;39160;48.580;7.756;2023-08-17T21:40:48;5.85;;;4.43;;
53271;SDS011;39160;48.580;7.756;2023-08-17T21:45:38;7.97;;;4.40;;
53271;SDS011;39160;48.580;7.756;2023-08-17T21:50:29;10.05;;;5.13;;
53271;SDS011;39160;48.580;7.756;2023-08-17T21:55:20;7.05;;;5.07;;
53271;SDS011;39160;48.580;7.756;2023-08-17T22:00:10;6.82;;;4.57;;
53271;SDS011;39160;48.580;7.756;2023-08-17T22:05:02;6.60;;;5.22;;
53271;SDS011;39160;48.580;7.756;2023-08-17T22:09:52;6.00;;;4.15;;
53271;SDS011;39160;48.580;7.756;2023-08-17T22:14:43;4.82;;;4.30;;
53271;SDS011;39160;48.580;7.756;2023-08-17T22:19:34;4.53;;;4.10;;
53271;SDS011;39160;48.580;7.756;2023-08-17T22:24:28;5.65;;;4.32;;
53271;SDS011;39160;48.580;7.756;2023-08-17T22:29:19;5.38;;;4.43;;
53271;SDS011;39160;48.580;7.756;2023-08-17T22:34:10;5.78;;;4.40;;
53271;SDS011;39160;48.580;7.756;2023-08-17T22:39:00;4.65;;;4.10;;
53271;SDS011;39160;48.580;7.756;2023-08-17T22:43:51;8.18;;;4.90;;
53271;SDS011;39160;48.580;7.756;2023-08-17T22:48:42;10.85;;;4.85;;
53271;SDS011;39160;48.580;7.756;2023-08-17T22:53:33;7.55;;;4.40;;
53271;SDS011;39160;48.580;7.756;2023-08-17T22:58:23;6.63;;;5.20;;
53271;SDS011;39160;48.580;7.756;2023-08-17T23:03:14;5.10;;;4.35;;
53271;SDS011;39160;48.580;7.756;2023-08-17T23:08:05;4.85;;;4.00;;
53271;SDS011;39160;48.580;7.756;2023-08-17T23:12:56;5.20;;;4.15;;
53271;SDS011;39160;48.580;7.756;2023-08-17T23:17:47;5.18;;;4.53;;
53271;SDS011;39160;48.580;7.756;2023-08-17T23:22:38;6.53;;;4.13;;
53271;SDS011;39160;48.580;7.756;2023-08-17T23:27:29;5.35;;;4.18;;
53271;SDS011;39160;48.580;7.756;2023-08-17T23:32:20;5.57;;;4.20;;
53271;SDS011;39160;48.580;7.756;2023-08-17T23:37:11;4.15;;;3.42;;
53271;SDS011;39160;48.580;7.756;2023-08-17T23:42:02;4.30;;;3.88;;
53271;SDS011;39160;48.580;7.756;2023-08-17T23:46:53;4.65;;;3.78;;
53271;SDS011;39160;48.580;7.756;2023-08-17T23:51:44;6.07;;;4.35;;
53271;SDS011;39160;48.580;7.756;2023-08-17T23:56:34;6.32;;;4.82;;
